createdAt,value
2023-01-15T00:00:46.803Z,993.18
2023-01-15T00:01:46.794Z,993.16
2023-01-15T00:02:46.888Z,993.13
2023-01-15T00:03:46.799Z,993.09
2023-01-15T00:04:46.768Z,993.17
2023-01-15T00:05:46.767Z,993.10
2023-01-15T00:06:46.737Z,993.18
2023-01-15T00:07:46.723Z,993.26
2023-01-15T00:08:46.739Z,993.21
2023-01-15T00:09:46.731Z,993.21
2023-01-15T00:10:46.692Z,993.27
2023-01-15T00:11:46.709Z,993.21
2023-01-15T00:12:46.686Z,993.22
2023-01-15T00:13:46.671Z,993.25
2023-01-15T00:14:46.680Z,993.25
2023-01-15T00:15:46.728Z,993.15
2023-01-15T00:16:46.643Z,993.14
2023-01-15T00:17:46.623Z,993.10
2023-01-15T00:18:46.611Z,993.16
2023-01-15T00:19:46.604Z,993.07
2023-01-15T00:20:46.593Z,993.10
2023-01-15T00:21:46.609Z,993.09
2023-01-15T00:22:46.564Z,993.07
2023-01-15T00:23:46.552Z,993.00
2023-01-15T00:24:46.563Z,992.93
2023-01-15T00:25:46.535Z,992.94
2023-01-15T00:26:46.543Z,992.93
2023-01-15T00:27:46.515Z,992.92
2023-01-15T00:28:46.506Z,992.92
2023-01-15T00:29:46.504Z,992.91
2023-01-15T00:30:46.473Z,992.87
2023-01-15T00:31:46.472Z,992.71
2023-01-15T00:32:46.469Z,992.84
2023-01-15T00:33:46.453Z,992.77
2023-01-15T00:34:46.435Z,992.73
2023-01-15T00:35:46.430Z,992.67
2023-01-15T00:36:46.415Z,992.70
2023-01-15T00:37:46.430Z,992.69
2023-01-15T00:38:46.404Z,992.62
2023-01-15T00:39:46.386Z,992.68
2023-01-15T00:40:46.395Z,992.63
2023-01-15T00:41:46.354Z,992.70
2023-01-15T00:42:54.357Z,992.74
2023-01-15T00:43:47.380Z,992.72
2023-01-15T00:44:46.336Z,992.70
2023-01-15T00:45:46.327Z,992.67
2023-01-15T00:46:46.394Z,992.63
2023-01-15T00:47:46.306Z,992.73
2023-01-15T00:48:46.313Z,992.71
2023-01-15T00:49:46.279Z,992.74
2023-01-15T00:50:46.277Z,992.71
2023-01-15T00:51:46.293Z,992.66
2023-01-15T00:52:46.300Z,992.56
2023-01-15T00:53:46.242Z,992.61
2023-01-15T00:54:46.239Z,992.54
2023-01-15T00:55:46.225Z,992.63
2023-01-15T00:56:46.213Z,992.61
2023-01-15T00:57:46.192Z,992.62
2023-01-15T00:58:46.202Z,992.58
2023-01-15T00:59:46.184Z,992.51
2023-01-15T01:00:46.182Z,992.51
2023-01-15T01:01:46.321Z,992.58
2023-01-15T01:02:46.275Z,992.55
2023-01-15T01:03:46.139Z,992.48
2023-01-15T01:04:46.124Z,992.46
2023-01-15T01:05:46.115Z,992.43
2023-01-15T01:06:46.093Z,992.36
2023-01-15T01:07:46.110Z,992.48
2023-01-15T01:08:46.224Z,992.46
2023-01-15T01:09:46.085Z,992.59
2023-01-15T01:10:46.253Z,992.57
2023-01-15T01:11:46.078Z,992.54
2023-01-15T01:12:46.034Z,992.61
2023-01-15T01:13:46.044Z,992.48
2023-01-15T01:14:46.014Z,992.58
2023-01-15T01:15:46.018Z,992.52
2023-01-15T01:16:45.996Z,992.51
2023-01-15T01:17:45.996Z,992.54
2023-01-15T01:18:45.973Z,992.53
2023-01-15T01:19:45.959Z,992.59
2023-01-15T01:20:45.940Z,992.67
2023-01-15T01:21:45.936Z,992.69
2023-01-15T01:22:45.932Z,992.69
2023-01-15T01:23:45.909Z,992.70
2023-01-15T01:24:45.900Z,992.65
2023-01-15T01:25:45.899Z,992.54
2023-01-15T01:26:45.893Z,992.67
2023-01-15T01:27:45.893Z,992.56
2023-01-15T01:28:45.873Z,992.61
2023-01-15T01:29:45.886Z,992.55
2023-01-15T01:30:45.840Z,992.59
2023-01-15T01:31:45.945Z,992.55
2023-01-15T01:32:45.818Z,992.52
2023-01-15T01:33:45.846Z,992.44
2023-01-15T01:34:45.794Z,992.38
2023-01-15T01:35:45.779Z,992.32
2023-01-15T01:36:45.808Z,992.43
2023-01-15T01:37:45.776Z,992.45
2023-01-15T01:38:45.762Z,992.43
2023-01-15T01:39:45.755Z,992.42
2023-01-15T01:40:45.737Z,992.44
2023-01-15T01:41:45.731Z,992.40
2023-01-15T01:42:45.715Z,992.43
2023-01-15T01:43:45.729Z,992.41
2023-01-15T01:44:45.711Z,992.45
2023-01-15T01:45:45.750Z,992.45
2023-01-15T01:46:45.668Z,992.56
2023-01-15T01:47:45.664Z,992.49
2023-01-15T01:48:45.645Z,992.47
2023-01-15T01:49:45.656Z,992.53
2023-01-15T01:50:45.624Z,992.56
2023-01-15T01:51:45.620Z,992.50
2023-01-15T01:52:45.611Z,992.53
2023-01-15T01:53:45.603Z,992.52
2023-01-15T01:54:45.577Z,992.47
2023-01-15T01:55:45.586Z,992.48
2023-01-15T01:56:45.558Z,992.54
2023-01-15T01:57:45.548Z,992.51
2023-01-15T01:58:45.547Z,992.56
2023-01-15T01:59:45.533Z,992.52
2023-01-15T02:00:45.615Z,992.47
2023-01-15T02:01:45.587Z,992.47
2023-01-15T02:02:45.551Z,992.40
2023-01-15T02:03:45.500Z,992.44
2023-01-15T02:04:45.479Z,992.44
2023-01-15T02:05:45.483Z,992.39
2023-01-15T02:06:45.458Z,992.37
2023-01-15T02:07:45.451Z,992.45
2023-01-15T02:08:45.435Z,992.36
2023-01-15T02:09:45.417Z,992.29
2023-01-15T02:10:45.424Z,992.29
2023-01-15T02:11:45.395Z,992.44
2023-01-15T02:12:45.383Z,992.44
2023-01-15T02:13:45.395Z,992.42
2023-01-15T02:14:45.368Z,992.52
2023-01-15T02:15:45.355Z,992.59
2023-01-15T02:16:45.400Z,992.61
2023-01-15T02:17:45.351Z,992.64
2023-01-15T02:18:45.321Z,992.62
2023-01-15T02:19:45.315Z,992.57
2023-01-15T02:20:45.338Z,992.67
2023-01-15T02:21:45.289Z,992.41
2023-01-15T02:22:45.291Z,992.48
2023-01-15T02:23:45.273Z,992.46
2023-01-15T02:24:45.260Z,992.40
2023-01-15T02:25:45.272Z,992.47
2023-01-15T02:26:45.234Z,992.45
2023-01-15T02:27:45.239Z,992.34
2023-01-15T02:28:45.234Z,992.42
2023-01-15T02:29:45.221Z,992.50
2023-01-15T02:30:45.206Z,992.51
2023-01-15T02:31:45.287Z,992.47
2023-01-15T02:32:45.179Z,992.36
2023-01-15T02:33:45.169Z,992.38
2023-01-15T02:34:45.163Z,992.32
2023-01-15T02:35:45.141Z,992.43
2023-01-15T02:36:45.155Z,992.30
2023-01-15T02:37:45.136Z,992.40
2023-01-15T02:38:45.118Z,992.39
2023-01-15T02:39:45.104Z,992.38
2023-01-15T02:40:45.096Z,992.38
2023-01-15T02:41:45.088Z,992.30
2023-01-15T02:42:45.076Z,992.22
2023-01-15T02:43:45.078Z,992.23
2023-01-15T02:44:45.057Z,992.27
2023-01-15T02:45:45.095Z,992.31
2023-01-15T02:46:45.042Z,992.26
2023-01-15T02:47:45.038Z,992.27
2023-01-15T02:48:45.017Z,992.34
2023-01-15T02:49:45.021Z,992.31
2023-01-15T02:50:44.998Z,992.35
2023-01-15T02:51:44.979Z,992.34
2023-01-15T02:52:44.965Z,992.33
2023-01-15T02:53:44.972Z,992.31
2023-01-15T02:54:44.953Z,992.49
2023-01-15T02:55:44.955Z,992.47
2023-01-15T02:56:44.924Z,992.53
2023-01-15T02:57:44.917Z,992.48
2023-01-15T02:58:44.909Z,992.48
2023-01-15T02:59:44.886Z,992.45
2023-01-15T03:00:44.904Z,992.46
2023-01-15T03:01:44.998Z,992.46
2023-01-15T03:02:44.922Z,992.49
2023-01-15T03:03:44.868Z,992.50
2023-01-15T03:04:44.850Z,992.54
2023-01-15T03:05:44.831Z,992.48
2023-01-15T03:06:44.818Z,992.54
2023-01-15T03:07:44.805Z,992.48
2023-01-15T03:08:44.795Z,992.56
2023-01-15T03:09:44.811Z,992.55
2023-01-15T03:10:44.766Z,992.51
2023-01-15T03:11:44.762Z,992.48
2023-01-15T03:12:44.754Z,992.47
2023-01-15T03:13:44.743Z,992.50
2023-01-15T03:14:44.743Z,992.54
2023-01-15T03:15:44.726Z,992.55
2023-01-15T03:16:44.797Z,992.50
2023-01-15T03:17:44.695Z,992.55
2023-01-15T03:18:44.700Z,992.56
2023-01-15T03:19:44.684Z,992.56
2023-01-15T03:20:44.682Z,992.59
2023-01-15T03:21:44.669Z,992.58
2023-01-15T03:22:44.645Z,992.58
2023-01-15T03:23:44.636Z,992.58
2023-01-15T03:24:44.624Z,992.53
2023-01-15T03:25:44.629Z,992.51
2023-01-15T03:26:44.611Z,992.53
2023-01-15T03:27:44.613Z,992.53
2023-01-15T03:28:44.615Z,992.50
2023-01-15T03:29:44.592Z,992.55
2023-01-15T03:30:44.599Z,992.55
2023-01-15T03:31:44.558Z,992.54
2023-01-15T03:32:44.547Z,992.52
2023-01-15T03:33:44.527Z,992.50
2023-01-15T03:34:44.515Z,992.53
2023-01-15T03:35:44.516Z,992.54
2023-01-15T03:36:44.508Z,992.53
2023-01-15T03:37:44.531Z,992.59
2023-01-15T03:38:44.477Z,992.63
2023-01-15T03:39:44.474Z,992.65
2023-01-15T03:40:44.460Z,992.65
2023-01-15T03:41:44.471Z,992.79
2023-01-15T03:42:44.465Z,993.06
2023-01-15T03:43:44.455Z,993.47
2023-01-15T03:44:44.455Z,993.19
2023-01-15T03:45:44.448Z,993.41
2023-01-15T03:46:44.414Z,993.27
2023-01-15T03:47:44.401Z,993.31
2023-01-15T03:48:44.412Z,993.33
2023-01-15T03:49:44.358Z,993.27
2023-01-15T03:50:44.350Z,993.32
2023-01-15T03:51:44.360Z,993.35
2023-01-15T03:52:44.342Z,993.23
2023-01-15T03:53:44.359Z,993.37
2023-01-15T03:54:44.384Z,993.35
2023-01-15T03:55:44.306Z,993.31
2023-01-15T03:56:44.302Z,993.29
2023-01-15T03:57:44.276Z,993.45
2023-01-15T03:58:44.346Z,993.42
2023-01-15T03:59:44.258Z,993.55
2023-01-15T04:00:44.265Z,993.48
2023-01-15T04:01:44.417Z,993.51
2023-01-15T04:02:44.212Z,993.51
2023-01-15T04:03:44.225Z,993.59
2023-01-15T04:04:44.191Z,993.77
2023-01-15T04:05:44.201Z,993.66
2023-01-15T04:06:44.169Z,993.74
2023-01-15T04:07:44.164Z,993.81
2023-01-15T04:08:44.150Z,993.92
2023-01-15T04:09:44.155Z,993.87
2023-01-15T04:10:44.144Z,993.88
2023-01-15T04:11:44.128Z,994.00
2023-01-15T04:12:44.116Z,994.11
2023-01-15T04:13:44.101Z,994.06
2023-01-15T04:14:44.103Z,994.09
2023-01-15T04:15:44.121Z,994.19
2023-01-15T04:16:44.074Z,994.19
2023-01-15T04:17:44.062Z,994.14
2023-01-15T04:18:44.049Z,994.20
2023-01-15T04:19:44.038Z,994.16
2023-01-15T04:20:44.037Z,994.15
2023-01-15T04:21:44.019Z,994.20
2023-01-15T04:22:44.009Z,994.14
2023-01-15T04:23:44.008Z,994.13
2023-01-15T04:24:44.005Z,994.08
2023-01-15T04:25:43.982Z,994.20
2023-01-15T04:26:43.978Z,994.27
2023-01-15T04:27:43.952Z,994.21
2023-01-15T04:28:43.951Z,994.26
2023-01-15T04:29:43.936Z,994.16
2023-01-15T04:30:43.944Z,994.24
2023-01-15T04:31:43.922Z,994.23
2023-01-15T04:32:43.898Z,994.30
2023-01-15T04:33:43.888Z,994.25
2023-01-15T04:34:43.873Z,994.28
2023-01-15T04:35:43.867Z,994.29
2023-01-15T04:36:43.883Z,994.27
2023-01-15T04:37:43.844Z,994.27
2023-01-15T04:38:43.842Z,994.29
2023-01-15T04:39:43.819Z,994.29
2023-01-15T04:40:43.833Z,994.28
2023-01-15T04:41:43.808Z,994.30
2023-01-15T04:42:43.807Z,994.37
2023-01-15T04:43:43.793Z,994.36
2023-01-15T04:44:43.785Z,994.33
2023-01-15T04:45:43.756Z,994.32
2023-01-15T04:46:43.784Z,994.26
2023-01-15T04:47:43.757Z,994.29
2023-01-15T04:48:43.755Z,994.27
2023-01-15T04:49:43.715Z,994.28
2023-01-15T04:50:43.704Z,994.30
2023-01-15T04:51:43.725Z,994.17
2023-01-15T04:52:43.699Z,994.22
2023-01-15T04:53:43.697Z,994.26
2023-01-15T04:54:43.686Z,994.28
2023-01-15T04:55:43.666Z,994.33
2023-01-15T04:56:43.649Z,994.32
2023-01-15T04:57:43.661Z,994.32
2023-01-15T04:58:43.628Z,994.29
2023-01-15T04:59:43.631Z,994.23
2023-01-15T05:00:43.617Z,994.30
2023-01-15T05:01:58.003Z,994.24
2023-01-15T05:02:44.647Z,994.29
2023-01-15T05:03:43.585Z,994.28
2023-01-15T05:04:43.617Z,994.36
2023-01-15T05:05:43.559Z,994.40
2023-01-15T05:06:43.556Z,994.37
2023-01-15T05:07:43.542Z,994.47
2023-01-15T05:08:43.536Z,994.42
2023-01-15T05:09:43.531Z,994.42
2023-01-15T05:10:43.504Z,994.34
2023-01-15T05:11:43.508Z,994.24
2023-01-15T05:12:43.481Z,994.31
2023-01-15T05:13:43.477Z,994.31
2023-01-15T05:14:43.474Z,994.22
2023-01-15T05:15:43.517Z,994.26
2023-01-15T05:16:43.443Z,994.22
2023-01-15T05:17:43.430Z,994.39
2023-01-15T05:18:43.424Z,994.32
2023-01-15T05:19:43.400Z,994.36
2023-01-15T05:20:43.433Z,994.27
2023-01-15T05:21:43.406Z,994.27
2023-01-15T05:22:43.418Z,994.24
2023-01-15T05:23:43.360Z,994.20
2023-01-15T05:24:43.349Z,994.18
2023-01-15T05:25:43.359Z,994.19
2023-01-15T05:26:43.361Z,994.16
2023-01-15T05:27:43.340Z,994.21
2023-01-15T05:28:43.331Z,994.17
2023-01-15T05:29:43.291Z,994.16
2023-01-15T05:30:43.392Z,994.22
2023-01-15T05:31:43.293Z,994.26
2023-01-15T05:32:43.273Z,994.17
2023-01-15T05:33:43.259Z,994.20
2023-01-15T05:34:43.249Z,994.19
2023-01-15T05:35:43.236Z,994.14
2023-01-15T05:36:43.242Z,994.12
2023-01-15T05:37:43.210Z,994.12
2023-01-15T05:38:43.205Z,994.05
2023-01-15T05:39:43.206Z,994.06
2023-01-15T05:40:43.183Z,994.06
2023-01-15T05:41:43.174Z,994.01
2023-01-15T05:42:43.174Z,994.03
2023-01-15T05:43:43.158Z,994.09
2023-01-15T05:44:43.138Z,994.05
2023-01-15T05:45:43.139Z,994.03
2023-01-15T05:46:43.138Z,994.07
2023-01-15T05:47:43.134Z,993.98
2023-01-15T05:48:43.098Z,993.95
2023-01-15T05:49:43.093Z,993.91
2023-01-15T05:50:43.081Z,993.89
2023-01-15T05:51:43.074Z,993.90
2023-01-15T05:52:43.069Z,993.91
2023-01-15T05:53:43.047Z,993.93
2023-01-15T05:54:43.048Z,993.92
2023-01-15T05:55:43.028Z,993.89
2023-01-15T05:56:43.029Z,993.86
2023-01-15T05:57:43.003Z,993.90
2023-01-15T05:58:43.060Z,993.94
2023-01-15T05:59:42.984Z,993.93
2023-01-15T06:00:42.979Z,993.88
2023-01-15T06:01:42.962Z,993.86
2023-01-15T06:02:50.514Z,993.89
2023-01-15T06:03:51.842Z,993.73
2023-01-15T06:04:50.466Z,993.68
2023-01-15T06:05:50.459Z,993.64
2023-01-15T06:06:42.911Z,993.76
2023-01-15T06:07:42.896Z,993.76
2023-01-15T06:08:42.903Z,993.77
2023-01-15T06:09:42.886Z,993.83
2023-01-15T06:10:42.877Z,993.90
2023-01-15T06:11:42.868Z,993.88
2023-01-15T06:12:42.865Z,993.91
2023-01-15T06:13:42.848Z,993.84
2023-01-15T06:14:42.829Z,993.83
2023-01-15T06:15:42.833Z,993.86
2023-01-15T06:16:42.811Z,993.85
2023-01-15T06:17:42.791Z,993.88
2023-01-15T06:18:42.791Z,993.85
2023-01-15T06:19:42.788Z,993.93
2023-01-15T06:20:42.769Z,993.90
2023-01-15T06:21:42.751Z,993.92
2023-01-15T06:22:42.730Z,993.95
2023-01-15T06:23:42.731Z,993.95
2023-01-15T06:24:42.707Z,994.03
2023-01-15T06:25:42.731Z,994.09
2023-01-15T06:26:42.706Z,994.05
2023-01-15T06:27:42.685Z,994.08
2023-01-15T06:28:42.665Z,994.10
2023-01-15T06:29:42.661Z,994.11
2023-01-15T06:30:42.645Z,994.14
2023-01-15T06:31:42.684Z,994.13
2023-01-15T06:32:42.630Z,994.22
2023-01-15T06:33:42.636Z,994.18
2023-01-15T06:34:42.611Z,994.18
2023-01-15T06:35:42.612Z,994.14
2023-01-15T06:36:42.581Z,994.14
2023-01-15T06:37:42.591Z,994.18
2023-01-15T06:38:42.575Z,994.18
2023-01-15T06:39:42.563Z,994.20
2023-01-15T06:40:42.554Z,994.20
2023-01-15T06:41:42.558Z,994.22
2023-01-15T06:42:42.542Z,994.22
2023-01-15T06:43:42.550Z,994.19
2023-01-15T06:44:42.509Z,994.21
2023-01-15T06:45:42.494Z,994.22
2023-01-15T06:46:42.543Z,994.24
2023-01-15T06:47:42.501Z,994.27
2023-01-15T06:48:42.480Z,994.29
2023-01-15T06:49:42.460Z,994.28
2023-01-15T06:50:42.438Z,994.28
2023-01-15T06:51:42.447Z,994.25
2023-01-15T06:52:42.421Z,994.23
2023-01-15T06:53:42.436Z,994.27
2023-01-15T06:54:42.395Z,994.17
2023-01-15T06:55:42.389Z,994.18
2023-01-15T06:56:42.389Z,994.23
2023-01-15T06:57:42.371Z,994.23
2023-01-15T06:58:42.358Z,994.30
2023-01-15T06:59:42.356Z,994.28
2023-01-15T07:00:42.359Z,994.21
2023-01-15T07:01:42.396Z,994.19
2023-01-15T07:02:42.308Z,994.25
2023-01-15T07:03:42.381Z,994.24
2023-01-15T07:04:42.328Z,994.31
2023-01-15T07:05:42.287Z,994.22
2023-01-15T07:06:42.305Z,994.31
2023-01-15T07:07:42.256Z,994.28
2023-01-15T07:08:42.253Z,994.27
2023-01-15T07:09:42.243Z,994.22
2023-01-15T07:10:42.258Z,994.23
2023-01-15T07:11:42.226Z,994.24
2023-01-15T07:12:42.215Z,994.24
2023-01-15T07:13:42.202Z,994.24
2023-01-15T07:14:42.184Z,994.31
2023-01-15T07:15:42.206Z,994.30
2023-01-15T07:16:42.169Z,994.29
2023-01-15T07:17:42.171Z,994.30
2023-01-15T07:18:42.148Z,994.28
2023-01-15T07:19:42.132Z,994.27
2023-01-15T07:20:42.137Z,994.35
2023-01-15T07:21:42.116Z,994.34
2023-01-15T07:22:42.105Z,994.35
2023-01-15T07:23:42.100Z,994.41
2023-01-15T07:24:42.095Z,994.46
2023-01-15T07:25:42.089Z,994.46
2023-01-15T07:26:42.087Z,994.53
2023-01-15T07:27:42.058Z,994.50
2023-01-15T07:28:42.037Z,994.45
2023-01-15T07:29:42.052Z,994.45
2023-01-15T07:30:42.006Z,994.53
2023-01-15T07:31:42.143Z,994.52
2023-01-15T07:32:42.004Z,994.48
2023-01-15T07:33:41.998Z,994.46
2023-01-15T07:34:41.974Z,994.48
2023-01-15T07:35:41.964Z,994.49
2023-01-15T07:36:41.948Z,994.47
2023-01-15T07:37:41.952Z,994.46
2023-01-15T07:38:41.937Z,994.44
2023-01-15T07:39:41.917Z,994.47
2023-01-15T07:40:41.928Z,994.43
2023-01-15T07:41:41.916Z,994.40
2023-01-15T07:42:41.896Z,994.40
2023-01-15T07:43:42.815Z,994.52
2023-01-15T07:44:41.869Z,994.58
2023-01-15T07:45:41.895Z,994.59
2023-01-15T07:46:41.845Z,994.58
2023-01-15T07:47:41.861Z,994.48
2023-01-15T07:48:41.829Z,994.53
2023-01-15T07:49:41.815Z,994.51
2023-01-15T07:50:41.802Z,994.51
2023-01-15T07:51:41.789Z,994.57
2023-01-15T07:52:41.817Z,994.56
2023-01-15T07:53:41.776Z,994.53
2023-01-15T07:54:41.766Z,994.55
2023-01-15T07:55:41.779Z,994.58
2023-01-15T07:56:41.738Z,994.54
2023-01-15T07:57:41.735Z,994.62
2023-01-15T07:58:41.732Z,994.60
2023-01-15T07:59:41.721Z,994.60
2023-01-15T08:00:42.023Z,994.70
2023-01-15T08:01:41.757Z,994.68
2023-01-15T08:02:41.686Z,994.60
2023-01-15T08:03:41.709Z,994.59
2023-01-15T08:04:41.654Z,994.57
2023-01-15T08:05:41.644Z,994.49
2023-01-15T08:06:41.674Z,994.43
2023-01-15T08:07:41.673Z,994.41
2023-01-15T08:08:41.612Z,994.40
2023-01-15T08:09:41.622Z,994.31
2023-01-15T08:10:41.598Z,994.23
2023-01-15T08:11:41.579Z,994.40
2023-01-15T08:12:41.587Z,994.42
2023-01-15T08:13:41.557Z,994.40
2023-01-15T08:14:41.566Z,994.37
2023-01-15T08:15:41.542Z,994.29
2023-01-15T08:16:41.586Z,994.28
2023-01-15T08:17:41.540Z,994.28
2023-01-15T08:18:41.516Z,994.25
2023-01-15T08:19:41.521Z,994.33
2023-01-15T08:20:41.500Z,994.35
2023-01-15T08:21:41.501Z,994.38
2023-01-15T08:22:41.474Z,994.43
2023-01-15T08:23:41.460Z,994.45
2023-01-15T08:24:41.450Z,994.48
2023-01-15T08:25:41.455Z,994.51
2023-01-15T08:26:41.423Z,994.48
2023-01-15T08:27:41.433Z,994.53
2023-01-15T08:28:41.407Z,994.56
2023-01-15T08:29:41.431Z,994.51
2023-01-15T08:30:41.371Z,994.53
2023-01-15T08:31:41.477Z,994.55
2023-01-15T08:32:41.370Z,994.56
2023-01-15T08:33:41.349Z,994.62
2023-01-15T08:34:41.334Z,994.55
2023-01-15T08:35:41.346Z,994.61
2023-01-15T08:36:41.320Z,994.54
2023-01-15T08:37:41.351Z,994.53
2023-01-15T08:38:41.298Z,994.53
2023-01-15T08:39:41.298Z,994.53
2023-01-15T08:40:41.271Z,994.45
2023-01-15T08:41:41.273Z,994.55
2023-01-15T08:42:41.254Z,994.58
2023-01-15T08:43:41.246Z,994.47
2023-01-15T08:44:41.230Z,994.59
2023-01-15T08:45:41.280Z,994.52
2023-01-15T08:46:41.244Z,994.49
2023-01-15T08:47:41.217Z,994.48
2023-01-15T08:48:41.206Z,994.43
2023-01-15T08:49:41.184Z,994.40
2023-01-15T08:50:41.163Z,994.52
2023-01-15T08:51:41.159Z,994.51
2023-01-15T08:52:41.179Z,994.58
2023-01-15T08:53:41.146Z,994.69
2023-01-15T08:54:42.237Z,994.70
2023-01-15T08:55:41.115Z,994.75
2023-01-15T08:56:41.202Z,994.75
2023-01-15T08:57:41.103Z,994.80
2023-01-15T08:58:41.121Z,994.81
2023-01-15T08:59:41.068Z,994.84
2023-01-15T09:00:41.080Z,994.87
2023-01-15T09:01:41.241Z,994.94
2023-01-15T09:02:41.043Z,994.86
2023-01-15T09:03:41.043Z,994.94
2023-01-15T09:04:41.071Z,994.92
2023-01-15T09:05:41.008Z,994.90
2023-01-15T09:06:41.149Z,994.88
2023-01-15T09:07:41.021Z,994.87
2023-01-15T09:08:40.993Z,994.88
2023-01-15T09:09:40.961Z,994.93
2023-01-15T09:10:40.984Z,994.87
2023-01-15T09:11:40.962Z,994.83
2023-01-15T09:12:40.936Z,994.91
2023-01-15T09:13:42.919Z,994.88
2023-01-15T09:14:58.564Z,994.79
2023-01-15T09:15:41.904Z,994.84
2023-01-15T09:16:41.066Z,994.85
2023-01-15T09:17:40.881Z,994.84
2023-01-15T09:18:40.880Z,994.76
2023-01-15T09:19:40.904Z,994.89
2023-01-15T09:20:40.852Z,994.85
2023-01-15T09:21:40.842Z,994.80
2023-01-15T09:22:40.831Z,994.84
2023-01-15T09:23:40.829Z,994.84
2023-01-15T09:24:40.814Z,994.87
2023-01-15T09:25:40.817Z,994.93
2023-01-15T09:26:40.895Z,994.86
2023-01-15T09:27:40.819Z,994.85
2023-01-15T09:28:40.780Z,994.91
2023-01-15T09:29:40.764Z,994.99
2023-01-15T09:30:40.832Z,994.92
2023-01-15T09:31:40.735Z,994.98
2023-01-15T09:32:40.727Z,994.95
2023-01-15T09:33:40.716Z,995.02
2023-01-15T09:34:40.701Z,994.99
2023-01-15T09:35:40.713Z,994.95
2023-01-15T09:36:41.584Z,994.94
2023-01-15T09:37:40.669Z,995.01
2023-01-15T09:38:40.657Z,995.07
2023-01-15T09:39:40.669Z,994.95
2023-01-15T09:40:40.644Z,995.00
2023-01-15T09:41:40.639Z,995.05
2023-01-15T09:42:40.619Z,995.08
2023-01-15T09:43:50.096Z,995.04
2023-01-15T09:44:41.627Z,995.09
2023-01-15T09:45:40.660Z,994.97
2023-01-15T09:46:40.591Z,994.96
2023-01-15T09:47:40.580Z,995.00
2023-01-15T09:48:40.550Z,994.97
2023-01-15T09:49:40.556Z,994.98
2023-01-15T09:50:40.573Z,994.99
2023-01-15T09:51:40.519Z,994.99
2023-01-15T09:52:40.537Z,995.01
2023-01-15T09:53:40.505Z,994.99
2023-01-15T09:54:40.497Z,995.01
2023-01-15T09:55:40.489Z,994.97
2023-01-15T09:56:40.498Z,994.94
2023-01-15T09:57:40.463Z,994.95
2023-01-15T09:58:40.604Z,994.97
2023-01-15T09:59:40.485Z,994.92
2023-01-15T10:00:40.422Z,994.84
2023-01-15T10:01:40.469Z,994.77
2023-01-15T10:02:40.413Z,994.82
2023-01-15T10:03:40.499Z,994.83
2023-01-15T10:04:40.382Z,994.82
2023-01-15T10:05:40.418Z,994.89
2023-01-15T10:06:40.362Z,994.88
2023-01-15T10:07:40.386Z,994.92
2023-01-15T10:08:40.365Z,995.01
2023-01-15T10:09:40.335Z,995.03
2023-01-15T10:10:40.323Z,994.97
2023-01-15T10:11:40.310Z,994.84
2023-01-15T10:12:40.308Z,994.90
2023-01-15T10:13:40.292Z,994.96
2023-01-15T10:14:40.294Z,994.88
2023-01-15T10:15:40.329Z,994.90
2023-01-15T10:16:40.262Z,994.84
2023-01-15T10:17:40.250Z,994.87
2023-01-15T10:18:40.232Z,994.81
2023-01-15T10:19:44.618Z,994.85
2023-01-15T10:20:40.222Z,994.76
2023-01-15T10:21:40.212Z,994.84
2023-01-15T10:22:40.194Z,994.79
2023-01-15T10:23:40.207Z,994.76
2023-01-15T10:24:40.187Z,994.82
2023-01-15T10:25:40.158Z,994.76
2023-01-15T10:26:48.827Z,994.75
2023-01-15T10:27:47.671Z,994.72
2023-01-15T10:28:47.662Z,994.73
2023-01-15T10:29:48.645Z,994.74
2023-01-15T10:30:40.189Z,994.73
2023-01-15T10:31:40.102Z,994.67
2023-01-15T10:32:40.838Z,994.83
2023-01-15T10:33:40.068Z,994.78
2023-01-15T10:34:40.064Z,994.82
2023-01-15T10:35:40.070Z,994.87
2023-01-15T10:36:40.047Z,994.90
2023-01-15T10:37:40.046Z,994.86
2023-01-15T10:38:40.026Z,994.83
2023-01-15T10:39:40.038Z,994.91
2023-01-15T10:40:40.001Z,994.91
2023-01-15T10:41:39.980Z,994.92
2023-01-15T10:42:39.971Z,994.91
2023-01-15T10:43:39.973Z,994.88
2023-01-15T10:44:39.949Z,994.86
2023-01-15T10:45:39.986Z,994.87
2023-01-15T10:46:39.943Z,994.80
2023-01-15T10:47:39.928Z,994.79
2023-01-15T10:48:39.929Z,994.86
2023-01-15T10:49:39.900Z,994.73
2023-01-15T10:50:39.913Z,994.83
2023-01-15T10:51:39.885Z,994.86
2023-01-15T10:52:39.904Z,994.85
2023-01-15T10:53:39.858Z,994.84
2023-01-15T10:54:39.856Z,994.81
2023-01-15T10:55:39.860Z,994.82
2023-01-15T10:56:39.863Z,994.80
2023-01-15T10:57:39.812Z,994.89
2023-01-15T10:58:39.858Z,994.84
2023-01-15T10:59:39.785Z,994.91
2023-01-15T11:00:39.790Z,994.99
2023-01-15T11:01:39.918Z,995.02
2023-01-15T11:02:39.985Z,994.97
2023-01-15T11:03:39.777Z,995.01
2023-01-15T11:04:39.749Z,995.05
2023-01-15T11:05:39.739Z,994.95
2023-01-15T11:06:39.756Z,995.00
2023-01-15T11:07:54.130Z,994.99
2023-01-15T11:09:10.871Z,994.97
2023-01-15T11:09:40.703Z,995.06
2023-01-15T11:10:41.363Z,995.07
2023-01-15T11:11:39.666Z,995.09
2023-01-15T11:12:39.659Z,995.00
2023-01-15T11:13:39.679Z,994.94
2023-01-15T11:14:39.635Z,995.00
2023-01-15T11:15:39.631Z,994.96
2023-01-15T11:16:39.607Z,994.98
2023-01-15T11:17:39.603Z,995.01
2023-01-15T11:18:39.588Z,994.98
2023-01-15T11:19:39.592Z,994.91
2023-01-15T11:20:39.571Z,995.01
2023-01-15T11:21:39.571Z,994.99
2023-01-15T11:22:39.589Z,994.97
2023-01-15T11:23:39.573Z,994.96
2023-01-15T11:24:39.526Z,994.94
2023-01-15T11:25:39.558Z,994.95
2023-01-15T11:26:39.510Z,994.96
2023-01-15T11:27:39.485Z,994.93
2023-01-15T11:28:39.494Z,994.89
2023-01-15T11:29:39.485Z,994.89
2023-01-15T11:30:39.456Z,994.91
2023-01-15T11:31:39.459Z,994.83
2023-01-15T11:32:39.456Z,994.88
2023-01-15T11:33:39.437Z,994.88
2023-01-15T11:34:39.442Z,994.86
2023-01-15T11:35:39.419Z,994.85
2023-01-15T11:36:39.395Z,994.82
2023-01-15T11:37:39.389Z,994.87
2023-01-15T11:38:39.370Z,994.80
2023-01-15T11:39:39.357Z,994.84
2023-01-15T11:40:39.370Z,994.86
2023-01-15T11:41:39.344Z,994.89
2023-01-15T11:42:39.331Z,994.96
2023-01-15T11:43:39.330Z,995.01
2023-01-15T11:44:39.317Z,995.00
2023-01-15T11:45:47.956Z,994.94
2023-01-15T11:46:39.349Z,994.93
2023-01-15T11:47:39.296Z,994.82
2023-01-15T11:48:39.272Z,994.91
2023-01-15T11:49:39.246Z,994.87
2023-01-15T11:50:39.260Z,994.91
2023-01-15T11:51:39.251Z,994.94
2023-01-15T11:52:39.237Z,994.95
2023-01-15T11:53:39.208Z,994.84
2023-01-15T11:54:39.250Z,994.82
2023-01-15T11:55:39.209Z,994.88
2023-01-15T11:56:39.182Z,994.83
2023-01-15T11:57:39.176Z,994.87
2023-01-15T11:58:39.162Z,994.82
2023-01-15T11:59:39.154Z,994.79
2023-01-15T12:00:39.197Z,994.83
2023-01-15T12:01:39.139Z,994.84
2023-01-15T12:02:39.115Z,994.83
2023-01-15T12:03:39.165Z,994.78
2023-01-15T12:04:39.166Z,994.86
2023-01-15T12:05:39.104Z,994.88
2023-01-15T12:06:39.078Z,994.89
2023-01-15T12:07:39.064Z,994.84
2023-01-15T12:08:39.059Z,994.88
2023-01-15T12:09:39.047Z,994.83
2023-01-15T12:10:39.023Z,994.88
2023-01-15T12:11:39.025Z,994.93
2023-01-15T12:12:39.015Z,994.88
2023-01-15T12:13:39.022Z,994.92
2023-01-15T12:14:38.991Z,994.86
2023-01-15T12:15:38.975Z,994.87
2023-01-15T12:16:38.989Z,994.90
2023-01-15T12:17:38.956Z,994.89
2023-01-15T12:18:38.950Z,994.87
2023-01-15T12:19:38.929Z,994.90
2023-01-15T12:20:38.927Z,994.91
2023-01-15T12:21:38.919Z,994.77
2023-01-15T12:22:38.916Z,994.81
2023-01-15T12:23:38.898Z,994.74
2023-01-15T12:24:38.876Z,994.81
2023-01-15T12:25:38.885Z,994.81
2023-01-15T12:26:38.867Z,994.80
2023-01-15T12:27:38.877Z,994.78
2023-01-15T12:28:38.848Z,994.80